Airfield :
LOGIN :

Register | Disclaimer

   EN    FR    IT 

 










Legend :    VFR   Marginal VFR   IFR   Intensive IFR   Very Intensive IFR
Visi :
Ceiling :
>= 8 km
>= 3000ft
5 to 8 km
1000 to 3000 ft
1500m to 5 km
500 to 1000 ft
800 to 1500m
200 to 500 ft
< 800m
< 200 ft
Symbols :   Thunderstorms  Fog  Heavy snow  Heavy precipitations  Wind > 20 kt
SIGMETs :     Misc.  Thunderstorms  Icing  Turbulence  Mountain Waves  Volcanic Ashes






- Airport Elevation : 157 ft
- IATA code : LIL


LFQQ - Lille Lesquin

CURRENT METAR :
  • 252200Z AUTO 18004KT 9999 BKN040 BKN048 OVC094 09/07 Q1018 NOSIG

EXPIRED METARs :
  • 252130Z AUTO 17004KT 9999 BKN039 OVC094 09/07 Q1018 NOSIG
  • 252100Z AUTO 17004KT 9999 BKN037 OVC094 09/07 Q1018 NOSIG
  • 252030Z AUTO 19007KT 9999 BKN038 BKN092 08/07 Q1018 NOSIG
  • 252000Z AUTO 14005KT 9999 SCT034 BKN042 BKN092 08/06 Q1018 NOSIG
  • 251930Z AUTO 14006KT 9999 SCT034 SCT056 BKN090 08/07 Q1017 NOSIG

TAF TAF LFQQ
Valid from the 25 at 18:00 until the 27 at 00:00 UTC


251700Z 2518/2624 17006KT 9999 BKN040
PROB30
TEMPO 2602/2610 2000 BR BKN003
BECMG 2618/2621 3000 BR
BECMG 2621/2624 0300 FG VV///
ATIS : +33 3 20 16 19 54



MET'MAP, your aeronautical weather chart ! - Copyright ORBIFLY December 2007 - Disclaimer

ORBIFLY MET'MAP TEAM :

Programming & Development : Alexandra Zaïnal
Concept & original design : Baudouin d'Aumeries
Assistance for programming : Marc-Olivier Méhu
Technical & hardware support : Manuel Goepfert

Contact : metmap@orbifly.com




SOURCES & CREDITS :

   NOAA